sensor_id;sensor_type;location;lat;lon;timestamp;P1;durP1;ratioP1;P2;durP2;ratioP2
12603;SDS011;6367;52.508;13.284;2023-04-25T00:02:02;1.93;;;1.83;;
12603;SDS011;6367;52.508;13.284;2023-04-25T00:04:28;2.77;;;2.07;;
12603;SDS011;6367;52.508;13.284;2023-04-25T00:06:54;3.53;;;2.00;;
12603;SDS011;6367;52.508;13.284;2023-04-25T00:09:20;3.00;;;1.90;;
12603;SDS011;6367;52.508;13.284;2023-04-25T00:11:47;3.83;;;2.27;;
12603;SDS011;6367;52.508;13.284;2023-04-25T00:14:12;4.07;;;2.10;;
12603;SDS011;6367;52.508;13.284;2023-04-25T00:16:38;3.43;;;2.20;;
12603;SDS011;6367;52.508;13.284;2023-04-25T00:19:06;3.90;;;2.30;;
12603;SDS011;6367;52.508;13.284;2023-04-25T00:21:32;3.70;;;2.20;;
12603;SDS011;6367;52.508;13.284;2023-04-25T00:23:58;1.80;;;1.60;;
12603;SDS011;6367;52.508;13.284;2023-04-25T00:26:24;2.10;;;1.77;;
12603;SDS011;6367;52.508;13.284;2023-04-25T00:28:50;2.30;;;2.10;;
12603;SDS011;6367;52.508;13.284;2023-04-25T00:31:16;4.10;;;2.23;;
12603;SDS011;6367;52.508;13.284;2023-04-25T00:33:42;2.83;;;1.83;;
12603;SDS011;6367;52.508;13.284;2023-04-25T00:36:07;3.17;;;2.37;;
12603;SDS011;6367;52.508;13.284;2023-04-25T00:38:33;2.20;;;2.00;;
12603;SDS011;6367;52.508;13.284;2023-04-25T00:40:59;4.40;;;2.20;;
12603;SDS011;6367;52.508;13.284;2023-04-25T00:43:25;3.37;;;2.47;;
12603;SDS011;6367;52.508;13.284;2023-04-25T00:45:52;4.53;;;2.40;;
12603;SDS011;6367;52.508;13.284;2023-04-25T00:48:18;3.80;;;2.47;;
12603;SDS011;6367;52.508;13.284;2023-04-25T00:50:55;3.53;;;2.20;;
12603;SDS011;6367;52.508;13.284;2023-04-25T00:53:23;5.90;;;2.63;;
12603;SDS011;6367;52.508;13.284;2023-04-25T00:55:49;6.00;;;2.40;;
12603;SDS011;6367;52.508;13.284;2023-04-25T00:58:19;8.53;;;3.20;;
12603;SDS011;6367;52.508;13.284;2023-04-25T01:00:47;7.33;;;3.43;;
12603;SDS011;6367;52.508;13.284;2023-04-25T01:03:14;4.90;;;2.90;;
12603;SDS011;6367;52.508;13.284;2023-04-25T01:05:41;3.77;;;2.47;;
12603;SDS011;6367;52.508;13.284;2023-04-25T01:08:07;3.70;;;2.50;;
12603;SDS011;6367;52.508;13.284;2023-04-25T01:10:33;4.73;;;2.17;;
12603;SDS011;6367;52.508;13.284;2023-04-25T01:12:59;4.03;;;2.63;;
12603;SDS011;6367;52.508;13.284;2023-04-25T01:15:25;4.60;;;2.40;;
12603;SDS011;6367;52.508;13.284;2023-04-25T01:17:50;3.70;;;2.43;;
12603;SDS011;6367;52.508;13.284;2023-04-25T01:20:16;5.47;;;2.97;;
12603;SDS011;6367;52.508;13.284;2023-04-25T01:22:42;4.87;;;2.90;;
12603;SDS011;6367;52.508;13.284;2023-04-25T01:25:08;7.03;;;2.90;;
12603;SDS011;6367;52.508;13.284;2023-04-25T01:27:36;5.33;;;3.53;;
12603;SDS011;6367;52.508;13.284;2023-04-25T01:30:02;4.80;;;3.13;;
12603;SDS011;6367;52.508;13.284;2023-04-25T01:32:29;4.90;;;2.90;;
12603;SDS011;6367;52.508;13.284;2023-04-25T01:35:03;3.93;;;2.90;;
12603;SDS011;6367;52.508;13.284;2023-04-25T01:37:34;7.97;;;2.67;;
12603;SDS011;6367;52.508;13.284;2023-04-25T01:40:03;5.33;;;3.00;;
12603;SDS011;6367;52.508;13.284;2023-04-25T01:42:32;3.10;;;2.20;;
12603;SDS011;6367;52.508;13.284;2023-04-25T01:44:59;3.97;;;3.00;;
12603;SDS011;6367;52.508;13.284;2023-04-25T01:47:25;4.43;;;2.47;;
12603;SDS011;6367;52.508;13.284;2023-04-25T01:49:50;4.37;;;2.83;;
12603;SDS011;6367;52.508;13.284;2023-04-25T01:52:16;2.87;;;2.60;;
12603;SDS011;6367;52.508;13.284;2023-04-25T01:54:42;4.87;;;2.70;;
12603;SDS011;6367;52.508;13.284;2023-04-25T01:57:12;5.93;;;2.23;;
12603;SDS011;6367;52.508;13.284;2023-04-25T01:59:38;5.70;;;2.60;;
12603;SDS011;6367;52.508;13.284;2023-04-25T02:02:04;5.77;;;3.17;;
12603;SDS011;6367;52.508;13.284;2023-04-25T02:04:30;3.37;;;2.73;;
12603;SDS011;6367;52.508;13.284;2023-04-25T02:06:56;5.60;;;3.57;;
12603;SDS011;6367;52.508;13.284;2023-04-25T02:09:21;5.50;;;3.00;;
12603;SDS011;6367;52.508;13.284;2023-04-25T02:11:47;3.83;;;3.00;;
12603;SDS011;6367;52.508;13.284;2023-04-25T02:14:13;4.13;;;3.10;;
12603;SDS011;6367;52.508;13.284;2023-04-25T02:16:39;4.43;;;3.10;;
12603;SDS011;6367;52.508;13.284;2023-04-25T02:19:05;4.00;;;2.90;;
12603;SDS011;6367;52.508;13.284;2023-04-25T02:21:31;7.93;;;3.40;;
12603;SDS011;6367;52.508;13.284;2023-04-25T02:23:57;4.83;;;3.20;;
12603;SDS011;6367;52.508;13.284;2023-04-25T02:26:23;4.73;;;2.70;;
12603;SDS011;6367;52.508;13.284;2023-04-25T02:28:49;3.80;;;2.70;;
12603;SDS011;6367;52.508;13.284;2023-04-25T02:31:16;5.40;;;3.13;;
12603;SDS011;6367;52.508;13.284;2023-04-25T02:33:42;8.27;;;3.23;;
12603;SDS011;6367;52.508;13.284;2023-04-25T02:36:08;4.60;;;3.40;;
12603;SDS011;6367;52.508;13.284;2023-04-25T02:38:33;3.80;;;3.03;;
12603;SDS011;6367;52.508;13.284;2023-04-25T02:40:59;9.60;;;3.67;;
12603;SDS011;6367;52.508;13.284;2023-04-25T02:43:25;6.87;;;3.47;;
12603;SDS011;6367;52.508;13.284;2023-04-25T02:45:50;4.40;;;3.03;;
12603;SDS011;6367;52.508;13.284;2023-04-25T02:48:16;7.40;;;3.83;;
12603;SDS011;6367;52.508;13.284;2023-04-25T02:50:42;3.37;;;3.00;;
12603;SDS011;6367;52.508;13.284;2023-04-25T02:53:07;5.13;;;3.10;;
12603;SDS011;6367;52.508;13.284;2023-04-25T02:55:33;5.77;;;3.60;;
12603;SDS011;6367;52.508;13.284;2023-04-25T02:57:59;6.23;;;3.60;;
12603;SDS011;6367;52.508;13.284;2023-04-25T03:00:24;6.67;;;3.63;;
12603;SDS011;6367;52.508;13.284;2023-04-25T03:02:50;6.53;;;3.17;;
12603;SDS011;6367;52.508;13.284;2023-04-25T03:05:16;5.20;;;3.13;;
12603;SDS011;6367;52.508;13.284;2023-04-25T03:07:42;4.73;;;3.50;;
12603;SDS011;6367;52.508;13.284;2023-04-25T03:10:09;7.53;;;4.53;;
12603;SDS011;6367;52.508;13.284;2023-04-25T03:12:35;5.90;;;3.50;;
12603;SDS011;6367;52.508;13.284;2023-04-25T03:15:00;6.33;;;3.90;;
12603;SDS011;6367;52.508;13.284;2023-04-25T03:17:26;4.80;;;3.60;;
12603;SDS011;6367;52.508;13.284;2023-04-25T03:19:52;4.73;;;3.40;;
12603;SDS011;6367;52.508;13.284;2023-04-25T03:22:18;11.57;;;4.03;;
12603;SDS011;6367;52.508;13.284;2023-04-25T03:24:43;5.13;;;4.10;;
12603;SDS011;6367;52.508;13.284;2023-04-25T03:27:09;3.70;;;3.33;;
12603;SDS011;6367;52.508;13.284;2023-04-25T03:29:35;5.17;;;4.20;;
12603;SDS011;6367;52.508;13.284;2023-04-25T03:32:00;5.77;;;3.60;;
12603;SDS011;6367;52.508;13.284;2023-04-25T03:34:26;5.93;;;3.43;;
12603;SDS011;6367;52.508;13.284;2023-04-25T03:36:52;5.53;;;4.13;;
12603;SDS011;6367;52.508;13.284;2023-04-25T03:39:17;5.97;;;4.03;;
12603;SDS011;6367;52.508;13.284;2023-04-25T03:41:43;8.27;;;4.07;;
12603;SDS011;6367;52.508;13.284;2023-04-25T03:44:08;4.43;;;4.00;;
12603;SDS011;6367;52.508;13.284;2023-04-25T03:46:34;6.17;;;3.60;;
12603;SDS011;6367;52.508;13.284;2023-04-25T03:49:00;7.10;;;4.00;;
12603;SDS011;6367;52.508;13.284;2023-04-25T03:51:25;4.33;;;3.77;;
12603;SDS011;6367;52.508;13.284;2023-04-25T03:53:51;5.67;;;3.83;;
12603;SDS011;6367;52.508;13.284;2023-04-25T03:56:17;11.70;;;3.90;;
12603;SDS011;6367;52.508;13.284;2023-04-25T03:58:43;6.97;;;3.50;;
12603;SDS011;6367;52.508;13.284;2023-04-25T04:01:09;5.43;;;4.00;;
12603;SDS011;6367;52.508;13.284;2023-04-25T04:03:35;5.17;;;3.50;;
12603;SDS011;6367;52.508;13.284;2023-04-25T04:06:01;5.83;;;3.90;;
12603;SDS011;6367;52.508;13.284;2023-04-25T04:08:29;5.90;;;3.70;;
12603;SDS011;6367;52.508;13.284;2023-04-25T04:10:57;7.93;;;4.83;;
12603;SDS011;6367;52.508;13.284;2023-04-25T04:13:23;7.27;;;3.70;;
12603;SDS011;6367;52.508;13.284;2023-04-25T04:15:50;5.00;;;3.50;;
12603;SDS011;6367;52.508;13.284;2023-04-25T04:18:16;6.40;;;3.27;;
12603;SDS011;6367;52.508;13.284;2023-04-25T04:20:42;6.73;;;3.80;;
12603;SDS011;6367;52.508;13.284;2023-04-25T04:23:07;8.33;;;4.07;;
12603;SDS011;6367;52.508;13.284;2023-04-25T04:25:33;6.70;;;4.30;;
12603;SDS011;6367;52.508;13.284;2023-04-25T04:27:59;5.17;;;3.50;;
12603;SDS011;6367;52.508;13.284;2023-04-25T04:30:26;8.73;;;3.50;;
12603;SDS011;6367;52.508;13.284;2023-04-25T04:32:55;4.77;;;3.80;;
12603;SDS011;6367;52.508;13.284;2023-04-25T04:35:21;12.63;;;4.37;;
12603;SDS011;6367;52.508;13.284;2023-04-25T04:37:47;6.73;;;3.73;;
12603;SDS011;6367;52.508;13.284;2023-04-25T04:40:13;5.60;;;3.60;;
12603;SDS011;6367;52.508;13.284;2023-04-25T04:42:43;6.10;;;4.40;;
12603;SDS011;6367;52.508;13.284;2023-04-25T04:45:10;6.70;;;3.33;;
12603;SDS011;6367;52.508;13.284;2023-04-25T04:47:36;5.60;;;3.30;;
12603;SDS011;6367;52.508;13.284;2023-04-25T04:50:08;6.43;;;3.50;;
12603;SDS011;6367;52.508;13.284;2023-04-25T04:52:35;7.80;;;3.37;;
12603;SDS011;6367;52.508;13.284;2023-04-25T04:55:02;5.70;;;3.57;;
12603;SDS011;6367;52.508;13.284;2023-04-25T04:57:28;4.20;;;3.77;;
12603;SDS011;6367;52.508;13.284;2023-04-25T04:59:54;5.10;;;3.33;;
12603;SDS011;6367;52.508;13.284;2023-04-25T05:02:20;6.13;;;3.50;;
12603;SDS011;6367;52.508;13.284;2023-04-25T05:04:46;6.53;;;3.87;;
12603;SDS011;6367;52.508;13.284;2023-04-25T05:07:11;7.03;;;3.80;;
12603;SDS011;6367;52.508;13.284;2023-04-25T05:09:37;6.47;;;3.90;;
12603;SDS011;6367;52.508;13.284;2023-04-25T05:12:03;4.80;;;3.47;;
12603;SDS011;6367;52.508;13.284;2023-04-25T05:14:30;4.93;;;3.23;;
12603;SDS011;6367;52.508;13.284;2023-04-25T05:16:56;3.87;;;3.57;;
12603;SDS011;6367;52.508;13.284;2023-04-25T05:19:21;5.73;;;3.63;;
12603;SDS011;6367;52.508;13.284;2023-04-25T05:21:48;5.70;;;3.77;;
12603;SDS011;6367;52.508;13.284;2023-04-25T05:24:14;5.20;;;3.43;;
12603;SDS011;6367;52.508;13.284;2023-04-25T05:26:40;6.30;;;3.80;;
12603;SDS011;6367;52.508;13.284;2023-04-25T05:29:05;5.03;;;3.03;;
12603;SDS011;6367;52.508;13.284;2023-04-25T05:31:32;8.07;;;3.40;;
12603;SDS011;6367;52.508;13.284;2023-04-25T05:33:58;4.57;;;3.33;;
12603;SDS011;6367;52.508;13.284;2023-04-25T05:36:23;10.90;;;4.57;;
12603;SDS011;6367;52.508;13.284;2023-04-25T05:38:49;7.93;;;3.93;;
12603;SDS011;6367;52.508;13.284;2023-04-25T05:41:15;8.83;;;4.50;;
12603;SDS011;6367;52.508;13.284;2023-04-25T05:43:40;6.40;;;3.93;;
12603;SDS011;6367;52.508;13.284;2023-04-25T05:46:12;7.70;;;3.80;;
12603;SDS011;6367;52.508;13.284;2023-04-25T05:48:37;4.43;;;3.90;;
12603;SDS011;6367;52.508;13.284;2023-04-25T05:51:04;6.07;;;4.50;;
12603;SDS011;6367;52.508;13.284;2023-04-25T05:53:30;6.77;;;3.87;;
12603;SDS011;6367;52.508;13.284;2023-04-25T05:55:56;7.30;;;5.17;;
12603;SDS011;6367;52.508;13.284;2023-04-25T05:58:21;8.50;;;4.57;;
12603;SDS011;6367;52.508;13.284;2023-04-25T06:00:47;8.50;;;4.13;;
12603;SDS011;6367;52.508;13.284;2023-04-25T06:03:12;7.40;;;4.80;;
12603;SDS011;6367;52.508;13.284;2023-04-25T06:05:41;6.87;;;4.70;;
12603;SDS011;6367;52.508;13.284;2023-04-25T06:08:07;8.20;;;4.30;;
12603;SDS011;6367;52.508;13.284;2023-04-25T06:10:33;10.60;;;5.00;;
12603;SDS011;6367;52.508;13.284;2023-04-25T06:12:58;6.33;;;4.63;;
12603;SDS011;6367;52.508;13.284;2023-04-25T06:15:24;10.40;;;4.47;;
12603;SDS011;6367;52.508;13.284;2023-04-25T06:17:50;8.90;;;5.30;;
12603;SDS011;6367;52.508;13.284;2023-04-25T06:20:16;11.73;;;5.20;;
12603;SDS011;6367;52.508;13.284;2023-04-25T06:22:41;8.00;;;4.97;;
12603;SDS011;6367;52.508;13.284;2023-04-25T06:25:07;8.30;;;4.90;;
12603;SDS011;6367;52.508;13.284;2023-04-25T06:27:33;5.87;;;4.50;;
12603;SDS011;6367;52.508;13.284;2023-04-25T06:29:59;10.07;;;5.10;;
12603;SDS011;6367;52.508;13.284;2023-04-25T06:32:25;4.70;;;4.00;;
12603;SDS011;6367;52.508;13.284;2023-04-25T06:34:52;9.07;;;4.73;;
12603;SDS011;6367;52.508;13.284;2023-04-25T06:37:18;7.90;;;4.90;;
12603;SDS011;6367;52.508;13.284;2023-04-25T06:39:44;7.57;;;4.30;;
12603;SDS011;6367;52.508;13.284;2023-04-25T06:42:09;7.30;;;4.60;;
12603;SDS011;6367;52.508;13.284;2023-04-25T06:44:35;10.87;;;5.67;;
12603;SDS011;6367;52.508;13.284;2023-04-25T06:47:00;7.83;;;4.80;;
12603;SDS011;6367;52.508;13.284;2023-04-25T06:49:26;8.27;;;4.43;;
12603;SDS011;6367;52.508;13.284;2023-04-25T06:51:52;5.27;;;4.73;;
12603;SDS011;6367;52.508;13.284;2023-04-25T06:54:17;5.63;;;4.27;;
12603;SDS011;6367;52.508;13.284;2023-04-25T06:56:43;8.10;;;4.67;;
12603;SDS011;6367;52.508;13.284;2023-04-25T06:59:08;5.60;;;4.33;;
12603;SDS011;6367;52.508;13.284;2023-04-25T07:01:34;6.80;;;4.50;;
12603;SDS011;6367;52.508;13.284;2023-04-25T07:04:00;7.80;;;4.07;;
12603;SDS011;6367;52.508;13.284;2023-04-25T07:06:26;8.17;;;3.70;;
12603;SDS011;6367;52.508;13.284;2023-04-25T07:08:52;5.37;;;4.07;;
12603;SDS011;6367;52.508;13.284;2023-04-25T07:11:18;6.30;;;4.17;;
12603;SDS011;6367;52.508;13.284;2023-04-25T07:13:44;5.23;;;3.60;;
12603;SDS011;6367;52.508;13.284;2023-04-25T07:16:10;5.77;;;3.97;;
12603;SDS011;6367;52.508;13.284;2023-04-25T07:18:35;8.43;;;4.30;;
12603;SDS011;6367;52.508;13.284;2023-04-25T07:21:01;6.50;;;4.10;;
12603;SDS011;6367;52.508;13.284;2023-04-25T07:23:27;6.77;;;4.17;;
12603;SDS011;6367;52.508;13.284;2023-04-25T07:25:52;5.90;;;4.10;;
12603;SDS011;6367;52.508;13.284;2023-04-25T07:28:18;5.20;;;3.70;;
12603;SDS011;6367;52.508;13.284;2023-04-25T07:30:44;9.93;;;4.57;;
12603;SDS011;6367;52.508;13.284;2023-04-25T07:33:10;8.43;;;3.80;;
12603;SDS011;6367;52.508;13.284;2023-04-25T07:35:35;7.40;;;4.40;;
12603;SDS011;6367;52.508;13.284;2023-04-25T07:38:01;6.33;;;4.00;;
12603;SDS011;6367;52.508;13.284;2023-04-25T07:40:27;14.27;;;5.30;;
12603;SDS011;6367;52.508;13.284;2023-04-25T07:42:53;10.10;;;5.03;;
12603;SDS011;6367;52.508;13.284;2023-04-25T07:45:19;11.00;;;3.87;;
12603;SDS011;6367;52.508;13.284;2023-04-25T07:47:44;11.03;;;4.43;;
12603;SDS011;6367;52.508;13.284;2023-04-25T07:50:10;9.87;;;4.33;;
12603;SDS011;6367;52.508;13.284;2023-04-25T07:52:36;10.37;;;4.53;;
12603;SDS011;6367;52.508;13.284;2023-04-25T07:55:02;12.83;;;4.20;;
12603;SDS011;6367;52.508;13.284;2023-04-25T07:57:28;12.43;;;4.43;;
12603;SDS011;6367;52.508;13.284;2023-04-25T07:59:54;14.30;;;4.23;;
12603;SDS011;6367;52.508;13.284;2023-04-25T08:02:19;11.37;;;3.53;;
12603;SDS011;6367;52.508;13.284;2023-04-25T08:04:45;12.23;;;3.67;;
12603;SDS011;6367;52.508;13.284;2023-04-25T08:07:11;11.30;;;3.90;;
12603;SDS011;6367;52.508;13.284;2023-04-25T08:09:37;11.20;;;4.30;;
12603;SDS011;6367;52.508;13.284;2023-04-25T08:12:03;16.70;;;4.40;;
12603;SDS011;6367;52.508;13.284;2023-04-25T08:14:29;10.50;;;3.57;;
12603;SDS011;6367;52.508;13.284;2023-04-25T08:17:00;16.33;;;3.70;;
12603;SDS011;6367;52.508;13.284;2023-04-25T08:19:27;15.63;;;4.00;;
12603;SDS011;6367;52.508;13.284;2023-04-25T08:21:53;14.67;;;4.33;;
12603;SDS011;6367;52.508;13.284;2023-04-25T08:24:20;17.40;;;3.97;;
12603;SDS011;6367;52.508;13.284;2023-04-25T08:26:46;8.23;;;3.70;;
12603;SDS011;6367;52.508;13.284;2023-04-25T08:29:11;10.93;;;5.20;;
12603;SDS011;6367;52.508;13.284;2023-04-25T08:31:37;13.10;;;4.50;;
12603;SDS011;6367;52.508;13.284;2023-04-25T08:34:03;8.63;;;3.63;;
12603;SDS011;6367;52.508;13.284;2023-04-25T08:36:28;10.10;;;3.87;;
12603;SDS011;6367;52.508;13.284;2023-04-25T08:38:54;8.10;;;3.37;;
12603;SDS011;6367;52.508;13.284;2023-04-25T08:41:20;10.07;;;3.27;;
12603;SDS011;6367;52.508;13.284;2023-04-25T08:43:47;8.77;;;3.53;;
12603;SDS011;6367;52.508;13.284;2023-04-25T08:46:13;10.87;;;3.33;;
12603;SDS011;6367;52.508;13.284;2023-04-25T08:48:43;8.57;;;3.20;;
12603;SDS011;6367;52.508;13.284;2023-04-25T08:51:10;11.00;;;3.53;;
12603;SDS011;6367;52.508;13.284;2023-04-25T08:53:43;11.07;;;3.57;;
12603;SDS011;6367;52.508;13.284;2023-04-25T08:56:14;6.40;;;2.90;;
12603;SDS011;6367;52.508;13.284;2023-04-25T08:58:43;10.13;;;2.83;;
12603;SDS011;6367;52.508;13.284;2023-04-25T09:01:10;9.67;;;4.07;;
12603;SDS011;6367;52.508;13.284;2023-04-25T09:03:36;7.43;;;2.97;;
12603;SDS011;6367;52.508;13.284;2023-04-25T09:06:03;6.10;;;2.53;;
12603;SDS011;6367;52.508;13.284;2023-04-25T09:08:29;5.77;;;2.77;;
12603;SDS011;6367;52.508;13.284;2023-04-25T09:10:55;9.20;;;3.00;;
12603;SDS011;6367;52.508;13.284;2023-04-25T09:13:24;10.07;;;3.00;;
12603;SDS011;6367;52.508;13.284;2023-04-25T09:15:52;11.50;;;2.93;;
12603;SDS011;6367;52.508;13.284;2023-04-25T09:18:32;7.00;;;3.10;;
12603;SDS011;6367;52.508;13.284;2023-04-25T09:21:05;10.17;;;3.00;;
12603;SDS011;6367;52.508;13.284;2023-04-25T09:24:06;8.17;;;2.60;;
12603;SDS011;6367;52.508;13.284;2023-04-25T09:26:25;5.03;;;2.67;;
12603;SDS011;6367;52.508;13.284;2023-04-25T09:28:57;7.77;;;3.33;;
12603;SDS011;6367;52.508;13.284;2023-04-25T09:31:33;5.70;;;2.60;;
12603;SDS011;6367;52.508;13.284;2023-04-25T09:33:59;10.33;;;3.10;;
12603;SDS011;6367;52.508;13.284;2023-04-25T09:36:29;6.40;;;2.50;;
12603;SDS011;6367;52.508;13.284;2023-04-25T09:38:55;7.20;;;2.63;;
12603;SDS011;6367;52.508;13.284;2023-04-25T09:41:24;5.53;;;2.40;;
12603;SDS011;6367;52.508;13.284;2023-04-25T09:43:49;7.67;;;3.10;;
12603;SDS011;6367;52.508;13.284;2023-04-25T09:46:15;6.43;;;2.57;;
12603;SDS011;6367;52.508;13.284;2023-04-25T09:48:50;10.37;;;3.03;;
12603;SDS011;6367;52.508;13.284;2023-04-25T09:51:16;9.27;;;3.60;;
12603;SDS011;6367;52.508;13.284;2023-04-25T09:53:45;11.47;;;3.40;;
12603;SDS011;6367;52.508;13.284;2023-04-25T09:56:15;9.70;;;3.10;;
12603;SDS011;6367;52.508;13.284;2023-04-25T09:58:41;7.43;;;2.80;;
12603;SDS011;6367;52.508;13.284;2023-04-25T10:01:08;6.23;;;2.80;;
12603;SDS011;6367;52.508;13.284;2023-04-25T10:03:36;13.37;;;3.43;;
12603;SDS011;6367;52.508;13.284;2023-04-25T10:06:09;9.50;;;2.97;;
12603;SDS011;6367;52.508;13.284;2023-04-25T10:08:39;5.23;;;2.60;;
12603;SDS011;6367;52.508;13.284;2023-04-25T10:11:07;4.47;;;2.20;;
12603;SDS011;6367;52.508;13.284;2023-04-25T10:13:34;5.80;;;2.57;;
12603;SDS011;6367;52.508;13.284;2023-04-25T10:16:04;6.50;;;2.67;;
12603;SDS011;6367;52.508;13.284;2023-04-25T10:18:30;4.37;;;1.90;;
12603;SDS011;6367;52.508;13.284;2023-04-25T10:21:01;6.90;;;2.53;;
12603;SDS011;6367;52.508;13.284;2023-04-25T10:23:29;8.17;;;2.80;;
12603;SDS011;6367;52.508;13.284;2023-04-25T10:25:56;5.40;;;2.23;;
12603;SDS011;6367;52.508;13.284;2023-04-25T10:28:23;7.70;;;2.50;;
12603;SDS011;6367;52.508;13.284;2023-04-25T10:31:02;7.03;;;2.90;;
12603;SDS011;6367;52.508;13.284;2023-04-25T10:33:33;7.10;;;2.90;;
12603;SDS011;6367;52.508;13.284;2023-04-25T10:36:07;7.03;;;2.73;;
12603;SDS011;6367;52.508;13.284;2023-04-25T10:38:37;7.60;;;2.17;;
12603;SDS011;6367;52.508;13.284;2023-04-25T10:41:06;5.40;;;2.00;;
12603;SDS011;6367;52.508;13.284;2023-04-25T10:46:03;2.80;;;1.97;;
12603;SDS011;6367;52.508;13.284;2023-04-25T10:48:45;4.03;;;2.03;;
12603;SDS011;6367;52.508;13.284;2023-04-25T10:51:17;5.97;;;2.47;;
12603;SDS011;6367;52.508;13.284;2023-04-25T10:53:59;4.80;;;2.30;;
12603;SDS011;6367;52.508;13.284;2023-04-25T10:56:27;6.93;;;2.50;;
12603;SDS011;6367;52.508;13.284;2023-04-25T10:59:04;10.27;;;2.77;;
12603;SDS011;6367;52.508;13.284;2023-04-25T11:01:42;7.57;;;2.87;;
12603;SDS011;6367;52.508;13.284;2023-04-25T11:07:05;6.70;;;2.60;;
12603;SDS011;6367;52.508;13.284;2023-04-25T11:09:41;4.80;;;2.20;;
12603;SDS011;6367;52.508;13.284;2023-04-25T11:12:10;6.40;;;2.07;;
12603;SDS011;6367;52.508;13.284;2023-04-25T11:14:39;9.73;;;2.93;;
12603;SDS011;6367;52.508;13.284;2023-04-25T11:17:05;6.80;;;2.60;;
12603;SDS011;6367;52.508;13.284;2023-04-25T11:19:31;7.13;;;2.03;;
12603;SDS011;6367;52.508;13.284;2023-04-25T11:22:00;4.20;;;2.30;;
12603;SDS011;6367;52.508;13.284;2023-04-25T11:24:27;8.30;;;2.53;;
12603;SDS011;6367;52.508;13.284;2023-04-25T11:26:57;5.97;;;2.23;;
12603;SDS011;6367;52.508;13.284;2023-04-25T11:29:27;7.17;;;2.40;;
12603;SDS011;6367;52.508;13.284;2023-04-25T11:31:54;3.33;;;1.83;;
12603;SDS011;6367;52.508;13.284;2023-04-25T11:34:23;4.03;;;1.80;;
12603;SDS011;6367;52.508;13.284;2023-04-25T11:36:50;5.80;;;2.10;;
12603;SDS011;6367;52.508;13.284;2023-04-25T11:39:18;4.67;;;1.80;;
12603;SDS011;6367;52.508;13.284;2023-04-25T11:41:44;5.00;;;1.83;;
12603;SDS011;6367;52.508;13.284;2023-04-25T11:44:10;8.47;;;2.30;;
12603;SDS011;6367;52.508;13.284;2023-04-25T11:46:35;3.93;;;2.00;;
12603;SDS011;6367;52.508;13.284;2023-04-25T11:49:01;6.03;;;1.70;;
12603;SDS011;6367;52.508;13.284;2023-04-25T11:51:28;6.50;;;2.00;;
12603;SDS011;6367;52.508;13.284;2023-04-25T11:53:53;5.90;;;2.20;;
12603;SDS011;6367;52.508;13.284;2023-04-25T11:56:19;3.80;;;2.37;;
12603;SDS011;6367;52.508;13.284;2023-04-25T11:58:58;5.23;;;1.93;;
12603;SDS011;6367;52.508;13.284;2023-04-25T12:01:28;5.30;;;2.23;;
12603;SDS011;6367;52.508;13.284;2023-04-25T12:03:57;5.30;;;1.83;;
12603;SDS011;6367;52.508;13.284;2023-04-25T12:06:30;8.90;;;2.60;;
12603;SDS011;6367;52.508;13.284;2023-04-25T12:08:59;3.83;;;2.10;;
12603;SDS011;6367;52.508;13.284;2023-04-25T12:11:32;5.37;;;1.93;;
12603;SDS011;6367;52.508;13.284;2023-04-25T12:14:02;3.77;;;2.17;;
12603;SDS011;6367;52.508;13.284;2023-04-25T12:16:28;6.00;;;2.50;;
12603;SDS011;6367;52.508;13.284;2023-04-25T12:18:55;5.27;;;2.67;;
12603;SDS011;6367;52.508;13.284;2023-04-25T12:21:22;4.40;;;3.00;;
12603;SDS011;6367;52.508;13.284;2023-04-25T12:23:47;6.07;;;2.60;;
12603;SDS011;6367;52.508;13.284;2023-04-25T12:26:13;3.90;;;2.20;;
12603;SDS011;6367;52.508;13.284;2023-04-25T12:28:39;5.10;;;2.67;;
12603;SDS011;6367;52.508;13.284;2023-04-25T12:31:05;5.63;;;1.90;;
12603;SDS011;6367;52.508;13.284;2023-04-25T12:33:35;5.17;;;2.30;;
12603;SDS011;6367;52.508;13.284;2023-04-25T12:36:02;3.73;;;1.70;;
12603;SDS011;6367;52.508;13.284;2023-04-25T12:38:35;4.67;;;2.40;;
12603;SDS011;6367;52.508;13.284;2023-04-25T12:41:02;4.73;;;2.43;;
12603;SDS011;6367;52.508;13.284;2023-04-25T12:43:28;5.80;;;2.40;;
12603;SDS011;6367;52.508;13.284;2023-04-25T12:45:54;5.13;;;2.53;;
12603;SDS011;6367;52.508;13.284;2023-04-25T12:48:21;3.97;;;2.37;;
12603;SDS011;6367;52.508;13.284;2023-04-25T12:50:48;6.37;;;2.50;;
12603;SDS011;6367;52.508;13.284;2023-04-25T12:53:17;4.90;;;1.97;;
12603;SDS011;6367;52.508;13.284;2023-04-25T12:55:48;4.80;;;2.00;;
12603;SDS011;6367;52.508;13.284;2023-04-25T12:58:14;3.20;;;2.17;;
12603;SDS011;6367;52.508;13.284;2023-04-25T13:00:40;3.43;;;1.90;;
12603;SDS011;6367;52.508;13.284;2023-04-25T13:03:10;7.50;;;2.03;;
12603;SDS011;6367;52.508;13.284;2023-04-25T13:05:38;5.83;;;2.00;;
12603;SDS011;6367;52.508;13.284;2023-04-25T13:08:04;6.87;;;2.40;;
12603;SDS011;6367;52.508;13.284;2023-04-25T13:10:30;5.53;;;2.07;;
12603;SDS011;6367;52.508;13.284;2023-04-25T13:12:56;5.13;;;1.93;;
12603;SDS011;6367;52.508;13.284;2023-04-25T13:15:22;4.83;;;1.57;;
12603;SDS011;6367;52.508;13.284;2023-04-25T13:17:48;5.20;;;1.63;;
12603;SDS011;6367;52.508;13.284;2023-04-25T13:20:13;3.67;;;2.20;;
12603;SDS011;6367;52.508;13.284;2023-04-25T13:22:40;2.87;;;1.80;;
12603;SDS011;6367;52.508;13.284;2023-04-25T13:25:07;3.60;;;1.90;;
12603;SDS011;6367;52.508;13.284;2023-04-25T13:27:33;4.17;;;2.17;;
12603;SDS011;6367;52.508;13.284;2023-04-25T13:30:01;2.30;;;1.40;;
12603;SDS011;6367;52.508;13.284;2023-04-25T13:32:32;7.10;;;2.00;;
12603;SDS011;6367;52.508;13.284;2023-04-25T13:34:59;5.00;;;1.67;;
12603;SDS011;6367;52.508;13.284;2023-04-25T13:37:24;4.80;;;1.57;;
12603;SDS011;6367;52.508;13.284;2023-04-25T13:39:50;4.50;;;1.90;;
12603;SDS011;6367;52.508;13.284;2023-04-25T13:42:16;5.23;;;2.33;;
12603;SDS011;6367;52.508;13.284;2023-04-25T13:44:41;5.80;;;1.83;;
12603;SDS011;6367;52.508;13.284;2023-04-25T13:47:07;4.80;;;1.80;;
12603;SDS011;6367;52.508;13.284;2023-04-25T13:49:32;4.30;;;1.60;;
12603;SDS011;6367;52.508;13.284;2023-04-25T13:51:58;3.60;;;1.73;;
12603;SDS011;6367;52.508;13.284;2023-04-25T13:54:24;6.17;;;2.13;;
12603;SDS011;6367;52.508;13.284;2023-04-25T13:56:50;3.60;;;1.77;;
12603;SDS011;6367;52.508;13.284;2023-04-25T13:59:17;7.20;;;1.90;;
12603;SDS011;6367;52.508;13.284;2023-04-25T14:01:42;5.20;;;1.93;;
12603;SDS011;6367;52.508;13.284;2023-04-25T14:04:08;4.60;;;2.17;;
12603;SDS011;6367;52.508;13.284;2023-04-25T14:06:34;1.93;;;1.60;;
12603;SDS011;6367;52.508;13.284;2023-04-25T14:09:00;5.70;;;2.07;;
12603;SDS011;6367;52.508;13.284;2023-04-25T14:11:26;6.33;;;2.00;;
12603;SDS011;6367;52.508;13.284;2023-04-25T14:13:51;3.83;;;1.70;;
12603;SDS011;6367;52.508;13.284;2023-04-25T14:16:17;2.87;;;1.60;;
12603;SDS011;6367;52.508;13.284;2023-04-25T14:18:43;2.50;;;1.67;;
12603;SDS011;6367;52.508;13.284;2023-04-25T14:21:08;6.07;;;1.37;;
12603;SDS011;6367;52.508;13.284;2023-04-25T14:23:34;7.23;;;1.90;;
12603;SDS011;6367;52.508;13.284;2023-04-25T14:26:00;3.93;;;1.70;;
12603;SDS011;6367;52.508;13.284;2023-04-25T14:28:26;2.97;;;1.30;;
12603;SDS011;6367;52.508;13.284;2023-04-25T14:30:52;3.00;;;1.40;;
12603;SDS011;6367;52.508;13.284;2023-04-25T14:33:18;5.40;;;1.67;;
12603;SDS011;6367;52.508;13.284;2023-04-25T14:35:43;2.50;;;1.40;;
12603;SDS011;6367;52.508;13.284;2023-04-25T14:38:09;4.87;;;1.57;;
12603;SDS011;6367;52.508;13.284;2023-04-25T14:40:35;2.63;;;1.63;;
12603;SDS011;6367;52.508;13.284;2023-04-25T14:43:01;4.40;;;1.47;;
12603;SDS011;6367;52.508;13.284;2023-04-25T14:45:27;4.67;;;1.53;;
12603;SDS011;6367;52.508;13.284;2023-04-25T14:47:53;4.53;;;1.97;;
12603;SDS011;6367;52.508;13.284;2023-04-25T14:50:19;3.27;;;1.80;;